sensor_id;sensor_type;location;lat;lon;timestamp;P1;durP1;ratioP1;P2;durP2;ratioP2
14060;SDS011;7105;43.616;1.434;2023-04-03T00:01:12;7.03;;;3.27;;
14060;SDS011;7105;43.616;1.434;2023-04-03T00:03:37;7.63;;;3.73;;
14060;SDS011;7105;43.616;1.434;2023-04-03T00:06:03;4.77;;;3.13;;
14060;SDS011;7105;43.616;1.434;2023-04-03T00:08:31;4.57;;;3.03;;
14060;SDS011;7105;43.616;1.434;2023-04-03T00:10:57;8.63;;;3.20;;
14060;SDS011;7105;43.616;1.434;2023-04-03T00:13:23;5.13;;;3.50;;
14060;SDS011;7105;43.616;1.434;2023-04-03T00:15:50;4.00;;;3.30;;
14060;SDS011;7105;43.616;1.434;2023-04-03T00:18:16;5.23;;;3.43;;
14060;SDS011;7105;43.616;1.434;2023-04-03T00:20:42;8.37;;;3.30;;
14060;SDS011;7105;43.616;1.434;2023-04-03T00:23:08;8.07;;;3.77;;
14060;SDS011;7105;43.616;1.434;2023-04-03T00:25:33;7.50;;;3.60;;
14060;SDS011;7105;43.616;1.434;2023-04-03T00:27:59;6.83;;;3.63;;
14060;SDS011;7105;43.616;1.434;2023-04-03T00:30:25;5.43;;;3.40;;
14060;SDS011;7105;43.616;1.434;2023-04-03T00:32:52;4.80;;;2.67;;
14060;SDS011;7105;43.616;1.434;2023-04-03T00:35:19;5.57;;;3.33;;
14060;SDS011;7105;43.616;1.434;2023-04-03T00:37:46;3.70;;;3.17;;
14060;SDS011;7105;43.616;1.434;2023-04-03T00:40:12;4.43;;;3.30;;
14060;SDS011;7105;43.616;1.434;2023-04-03T00:42:40;4.60;;;3.30;;
14060;SDS011;7105;43.616;1.434;2023-04-03T00:47:38;10.60;;;3.30;;
14060;SDS011;7105;43.616;1.434;2023-04-03T00:50:06;4.60;;;3.20;;
14060;SDS011;7105;43.616;1.434;2023-04-03T00:52:32;6.60;;;3.67;;
14060;SDS011;7105;43.616;1.434;2023-04-03T00:55:00;5.07;;;3.23;;
14060;SDS011;7105;43.616;1.434;2023-04-03T00:57:29;7.60;;;3.80;;
14060;SDS011;7105;43.616;1.434;2023-04-03T01:00:00;5.87;;;3.27;;
14060;SDS011;7105;43.616;1.434;2023-04-03T01:02:31;3.93;;;2.90;;
14060;SDS011;7105;43.616;1.434;2023-04-03T01:04:56;7.33;;;3.70;;
14060;SDS011;7105;43.616;1.434;2023-04-03T01:07:23;6.03;;;3.57;;
14060;SDS011;7105;43.616;1.434;2023-04-03T01:09:56;5.37;;;3.10;;
14060;SDS011;7105;43.616;1.434;2023-04-03T01:14:56;4.93;;;3.27;;
14060;SDS011;7105;43.616;1.434;2023-04-03T01:25:13;4.80;;;3.10;;
14060;SDS011;7105;43.616;1.434;2023-04-03T01:27:38;5.73;;;3.50;;
14060;SDS011;7105;43.616;1.434;2023-04-03T01:30:05;3.93;;;3.30;;
14060;SDS011;7105;43.616;1.434;2023-04-03T01:32:31;5.43;;;3.17;;
14060;SDS011;7105;43.616;1.434;2023-04-03T01:34:57;6.47;;;3.70;;
14060;SDS011;7105;43.616;1.434;2023-04-03T01:37:23;5.53;;;3.90;;
14060;SDS011;7105;43.616;1.434;2023-04-03T01:39:48;6.23;;;3.50;;
14060;SDS011;7105;43.616;1.434;2023-04-03T01:42:14;5.90;;;3.33;;
14060;SDS011;7105;43.616;1.434;2023-04-03T01:44:41;6.87;;;3.50;;
14060;SDS011;7105;43.616;1.434;2023-04-03T01:47:06;6.93;;;3.50;;
14060;SDS011;7105;43.616;1.434;2023-04-03T01:49:32;4.20;;;3.53;;
14060;SDS011;7105;43.616;1.434;2023-04-03T01:51:58;4.73;;;3.50;;
14060;SDS011;7105;43.616;1.434;2023-04-03T01:54:24;6.67;;;3.93;;
14060;SDS011;7105;43.616;1.434;2023-04-03T01:56:49;6.87;;;3.90;;
14060;SDS011;7105;43.616;1.434;2023-04-03T01:59:15;5.97;;;3.97;;
14060;SDS011;7105;43.616;1.434;2023-04-03T02:01:42;7.80;;;3.73;;
14060;SDS011;7105;43.616;1.434;2023-04-03T02:04:10;4.17;;;3.33;;
14060;SDS011;7105;43.616;1.434;2023-04-03T02:06:36;5.50;;;3.37;;
14060;SDS011;7105;43.616;1.434;2023-04-03T02:09:02;5.77;;;3.90;;
14060;SDS011;7105;43.616;1.434;2023-04-03T02:11:29;5.20;;;3.73;;
14060;SDS011;7105;43.616;1.434;2023-04-03T02:13:55;4.17;;;3.77;;
14060;SDS011;7105;43.616;1.434;2023-04-03T02:16:20;4.13;;;3.73;;
14060;SDS011;7105;43.616;1.434;2023-04-03T02:18:46;5.60;;;4.20;;
14060;SDS011;7105;43.616;1.434;2023-04-03T02:21:12;4.20;;;3.80;;
14060;SDS011;7105;43.616;1.434;2023-04-03T02:23:38;7.40;;;4.33;;
14060;SDS011;7105;43.616;1.434;2023-04-03T02:26:04;7.60;;;4.10;;
14060;SDS011;7105;43.616;1.434;2023-04-03T02:28:34;5.57;;;4.00;;
14060;SDS011;7105;43.616;1.434;2023-04-03T02:31:01;6.30;;;4.60;;
14060;SDS011;7105;43.616;1.434;2023-04-03T02:33:27;5.30;;;4.23;;
14060;SDS011;7105;43.616;1.434;2023-04-03T02:35:53;5.93;;;3.97;;
14060;SDS011;7105;43.616;1.434;2023-04-03T02:38:20;6.17;;;3.93;;
14060;SDS011;7105;43.616;1.434;2023-04-03T02:40:46;5.87;;;4.23;;
14060;SDS011;7105;43.616;1.434;2023-04-03T02:43:11;5.10;;;4.13;;
14060;SDS011;7105;43.616;1.434;2023-04-03T02:45:37;9.00;;;4.00;;
14060;SDS011;7105;43.616;1.434;2023-04-03T02:48:03;5.30;;;3.90;;
14060;SDS011;7105;43.616;1.434;2023-04-03T02:50:29;5.20;;;3.93;;
14060;SDS011;7105;43.616;1.434;2023-04-03T02:52:55;5.47;;;3.83;;
14060;SDS011;7105;43.616;1.434;2023-04-03T02:55:20;7.30;;;4.40;;
14060;SDS011;7105;43.616;1.434;2023-04-03T02:57:46;7.87;;;4.40;;
14060;SDS011;7105;43.616;1.434;2023-04-03T03:00:12;6.33;;;4.03;;
14060;SDS011;7105;43.616;1.434;2023-04-03T03:02:39;4.83;;;4.27;;
14060;SDS011;7105;43.616;1.434;2023-04-03T03:05:05;7.30;;;4.20;;
14060;SDS011;7105;43.616;1.434;2023-04-03T03:07:32;5.33;;;4.20;;
14060;SDS011;7105;43.616;1.434;2023-04-03T03:09:58;5.43;;;4.17;;
14060;SDS011;7105;43.616;1.434;2023-04-03T03:12:24;4.73;;;3.93;;
14060;SDS011;7105;43.616;1.434;2023-04-03T03:14:49;7.17;;;4.63;;
14060;SDS011;7105;43.616;1.434;2023-04-03T03:17:15;5.57;;;4.47;;
14060;SDS011;7105;43.616;1.434;2023-04-03T03:19:42;6.23;;;3.90;;
14060;SDS011;7105;43.616;1.434;2023-04-03T03:22:08;5.13;;;3.70;;
14060;SDS011;7105;43.616;1.434;2023-04-03T03:24:34;6.07;;;3.70;;
14060;SDS011;7105;43.616;1.434;2023-04-03T03:26:59;6.23;;;4.30;;
14060;SDS011;7105;43.616;1.434;2023-04-03T03:29:25;10.87;;;4.43;;
14060;SDS011;7105;43.616;1.434;2023-04-03T03:31:51;7.80;;;4.30;;
14060;SDS011;7105;43.616;1.434;2023-04-03T03:34:16;7.03;;;4.57;;
14060;SDS011;7105;43.616;1.434;2023-04-03T03:36:42;4.60;;;4.20;;
14060;SDS011;7105;43.616;1.434;2023-04-03T03:39:08;5.77;;;3.97;;
14060;SDS011;7105;43.616;1.434;2023-04-03T03:41:34;5.53;;;4.20;;
14060;SDS011;7105;43.616;1.434;2023-04-03T03:44:00;4.90;;;4.37;;
14060;SDS011;7105;43.616;1.434;2023-04-03T03:46:26;6.30;;;4.40;;
14060;SDS011;7105;43.616;1.434;2023-04-03T03:48:51;4.97;;;4.40;;
14060;SDS011;7105;43.616;1.434;2023-04-03T03:51:17;4.93;;;4.47;;
14060;SDS011;7105;43.616;1.434;2023-04-03T03:53:43;6.23;;;4.37;;
14060;SDS011;7105;43.616;1.434;2023-04-03T03:56:08;5.67;;;4.37;;
14060;SDS011;7105;43.616;1.434;2023-04-03T03:58:34;5.13;;;4.63;;
14060;SDS011;7105;43.616;1.434;2023-04-03T04:01:01;7.67;;;4.97;;
14060;SDS011;7105;43.616;1.434;2023-04-03T04:03:28;7.63;;;4.50;;
14060;SDS011;7105;43.616;1.434;2023-04-03T04:05:54;7.47;;;4.90;;
14060;SDS011;7105;43.616;1.434;2023-04-03T04:08:20;7.50;;;4.80;;
14060;SDS011;7105;43.616;1.434;2023-04-03T04:10:45;6.87;;;5.13;;
14060;SDS011;7105;43.616;1.434;2023-04-03T04:13:11;7.00;;;5.20;;
14060;SDS011;7105;43.616;1.434;2023-04-03T04:15:37;7.53;;;4.67;;
14060;SDS011;7105;43.616;1.434;2023-04-03T04:18:02;5.63;;;4.57;;
14060;SDS011;7105;43.616;1.434;2023-04-03T04:20:28;6.53;;;4.67;;
14060;SDS011;7105;43.616;1.434;2023-04-03T04:22:54;5.83;;;4.60;;
14060;SDS011;7105;43.616;1.434;2023-04-03T04:25:20;5.30;;;4.47;;
14060;SDS011;7105;43.616;1.434;2023-04-03T04:27:45;6.47;;;4.93;;
14060;SDS011;7105;43.616;1.434;2023-04-03T04:30:11;5.50;;;5.00;;
14060;SDS011;7105;43.616;1.434;2023-04-03T04:32:37;7.57;;;4.90;;
14060;SDS011;7105;43.616;1.434;2023-04-03T04:35:03;6.80;;;4.93;;
14060;SDS011;7105;43.616;1.434;2023-04-03T04:37:29;7.87;;;4.97;;
14060;SDS011;7105;43.616;1.434;2023-04-03T04:39:55;7.07;;;5.67;;
14060;SDS011;7105;43.616;1.434;2023-04-03T04:42:21;6.27;;;5.10;;
14060;SDS011;7105;43.616;1.434;2023-04-03T04:44:47;7.07;;;5.27;;
14060;SDS011;7105;43.616;1.434;2023-04-03T04:47:15;5.93;;;5.33;;
14060;SDS011;7105;43.616;1.434;2023-04-03T04:49:44;5.67;;;4.60;;
14060;SDS011;7105;43.616;1.434;2023-04-03T04:52:12;6.57;;;5.43;;
14060;SDS011;7105;43.616;1.434;2023-04-03T04:54:38;7.00;;;4.97;;
14060;SDS011;7105;43.616;1.434;2023-04-03T04:57:04;6.00;;;5.10;;
14060;SDS011;7105;43.616;1.434;2023-04-03T04:59:30;9.43;;;5.80;;
14060;SDS011;7105;43.616;1.434;2023-04-03T05:01:55;8.83;;;5.30;;
14060;SDS011;7105;43.616;1.434;2023-04-03T05:04:21;7.13;;;4.97;;
14060;SDS011;7105;43.616;1.434;2023-04-03T05:06:47;7.20;;;4.87;;
14060;SDS011;7105;43.616;1.434;2023-04-03T05:09:13;6.03;;;5.00;;
14060;SDS011;7105;43.616;1.434;2023-04-03T05:11:38;8.23;;;5.10;;
14060;SDS011;7105;43.616;1.434;2023-04-03T05:14:04;6.20;;;5.20;;
14060;SDS011;7105;43.616;1.434;2023-04-03T05:16:33;6.60;;;5.63;;
14060;SDS011;7105;43.616;1.434;2023-04-03T05:18:59;9.93;;;5.47;;
14060;SDS011;7105;43.616;1.434;2023-04-03T05:21:24;7.80;;;5.63;;
14060;SDS011;7105;43.616;1.434;2023-04-03T05:23:52;6.70;;;5.40;;
14060;SDS011;7105;43.616;1.434;2023-04-03T05:26:18;8.87;;;5.50;;
14060;SDS011;7105;43.616;1.434;2023-04-03T05:28:44;6.73;;;5.17;;
14060;SDS011;7105;43.616;1.434;2023-04-03T05:31:09;8.20;;;6.10;;
14060;SDS011;7105;43.616;1.434;2023-04-03T05:33:35;6.27;;;5.53;;
14060;SDS011;7105;43.616;1.434;2023-04-03T05:36:04;8.30;;;6.03;;
14060;SDS011;7105;43.616;1.434;2023-04-03T05:38:30;8.23;;;6.50;;
14060;SDS011;7105;43.616;1.434;2023-04-03T05:40:57;6.53;;;5.67;;
14060;SDS011;7105;43.616;1.434;2023-04-03T05:43:22;7.37;;;5.90;;
14060;SDS011;7105;43.616;1.434;2023-04-03T05:45:48;8.23;;;6.70;;
14060;SDS011;7105;43.616;1.434;2023-04-03T05:48:14;6.10;;;5.50;;
14060;SDS011;7105;43.616;1.434;2023-04-03T05:50:39;6.80;;;5.77;;
14060;SDS011;7105;43.616;1.434;2023-04-03T05:53:07;12.07;;;8.17;;
14060;SDS011;7105;43.616;1.434;2023-04-03T05:55:41;7.07;;;6.03;;
14060;SDS011;7105;43.616;1.434;2023-04-03T05:58:07;8.17;;;6.17;;
14060;SDS011;7105;43.616;1.434;2023-04-03T06:00:32;6.97;;;6.03;;
14060;SDS011;7105;43.616;1.434;2023-04-03T06:02:58;10.10;;;6.53;;
14060;SDS011;7105;43.616;1.434;2023-04-03T06:05:24;6.40;;;5.70;;
14060;SDS011;7105;43.616;1.434;2023-04-03T06:07:50;7.40;;;5.60;;
14060;SDS011;7105;43.616;1.434;2023-04-03T06:10:15;7.83;;;5.53;;
14060;SDS011;7105;43.616;1.434;2023-04-03T06:12:42;9.27;;;5.47;;
14060;SDS011;7105;43.616;1.434;2023-04-03T06:15:08;8.40;;;5.57;;
14060;SDS011;7105;43.616;1.434;2023-04-03T06:17:35;7.07;;;5.03;;
14060;SDS011;7105;43.616;1.434;2023-04-03T06:20:02;5.87;;;4.90;;
14060;SDS011;7105;43.616;1.434;2023-04-03T06:22:28;6.33;;;5.20;;
14060;SDS011;7105;43.616;1.434;2023-04-03T06:24:55;6.47;;;4.97;;
14060;SDS011;7105;43.616;1.434;2023-04-03T06:27:21;7.80;;;5.20;;
14060;SDS011;7105;43.616;1.434;2023-04-03T06:29:47;8.10;;;5.20;;
14060;SDS011;7105;43.616;1.434;2023-04-03T06:32:13;5.83;;;4.83;;
14060;SDS011;7105;43.616;1.434;2023-04-03T06:34:40;7.87;;;5.30;;
14060;SDS011;7105;43.616;1.434;2023-04-03T06:37:06;6.00;;;4.83;;
14060;SDS011;7105;43.616;1.434;2023-04-03T06:39:41;6.07;;;4.93;;
14060;SDS011;7105;43.616;1.434;2023-04-03T06:42:07;7.27;;;4.87;;
14060;SDS011;7105;43.616;1.434;2023-04-03T06:44:32;5.90;;;4.57;;
14060;SDS011;7105;43.616;1.434;2023-04-03T06:46:59;5.60;;;4.73;;
14060;SDS011;7105;43.616;1.434;2023-04-03T06:49:26;7.77;;;5.17;;
14060;SDS011;7105;43.616;1.434;2023-04-03T06:51:51;6.10;;;4.97;;
14060;SDS011;7105;43.616;1.434;2023-04-03T06:54:17;7.37;;;4.80;;
14060;SDS011;7105;43.616;1.434;2023-04-03T06:56:43;5.70;;;4.67;;
14060;SDS011;7105;43.616;1.434;2023-04-03T06:59:09;5.93;;;5.00;;
14060;SDS011;7105;43.616;1.434;2023-04-03T07:01:37;8.40;;;5.20;;
14060;SDS011;7105;43.616;1.434;2023-04-03T07:04:03;8.37;;;5.30;;
14060;SDS011;7105;43.616;1.434;2023-04-03T07:06:29;6.43;;;5.27;;
14060;SDS011;7105;43.616;1.434;2023-04-03T07:08:56;6.27;;;5.30;;
14060;SDS011;7105;43.616;1.434;2023-04-03T07:11:22;6.03;;;4.53;;
14060;SDS011;7105;43.616;1.434;2023-04-03T07:13:48;8.07;;;5.37;;
14060;SDS011;7105;43.616;1.434;2023-04-03T07:16:15;6.20;;;4.83;;
14060;SDS011;7105;43.616;1.434;2023-04-03T07:18:41;8.17;;;5.47;;
14060;SDS011;7105;43.616;1.434;2023-04-03T07:21:06;5.77;;;4.77;;
14060;SDS011;7105;43.616;1.434;2023-04-03T07:23:32;5.70;;;5.07;;
14060;SDS011;7105;43.616;1.434;2023-04-03T07:25:58;5.77;;;5.17;;
14060;SDS011;7105;43.616;1.434;2023-04-03T07:28:24;5.27;;;4.67;;
14060;SDS011;7105;43.616;1.434;2023-04-03T07:33:27;7.53;;;5.10;;
14060;SDS011;7105;43.616;1.434;2023-04-03T07:35:53;6.17;;;4.77;;
14060;SDS011;7105;43.616;1.434;2023-04-03T07:38:18;6.17;;;4.87;;
14060;SDS011;7105;43.616;1.434;2023-04-03T07:40:47;6.90;;;5.13;;
14060;SDS011;7105;43.616;1.434;2023-04-03T07:43:15;5.83;;;4.73;;
14060;SDS011;7105;43.616;1.434;2023-04-03T07:45:42;6.90;;;4.90;;
14060;SDS011;7105;43.616;1.434;2023-04-03T07:48:09;6.67;;;4.50;;
14060;SDS011;7105;43.616;1.434;2023-04-03T07:50:36;6.93;;;4.77;;
14060;SDS011;7105;43.616;1.434;2023-04-03T07:53:01;8.40;;;4.70;;
14060;SDS011;7105;43.616;1.434;2023-04-03T07:55:28;5.17;;;4.37;;
14060;SDS011;7105;43.616;1.434;2023-04-03T07:57:54;6.23;;;4.50;;
14060;SDS011;7105;43.616;1.434;2023-04-03T08:00:20;6.90;;;4.97;;
14060;SDS011;7105;43.616;1.434;2023-04-03T08:02:46;5.37;;;3.93;;
14060;SDS011;7105;43.616;1.434;2023-04-03T08:05:16;4.80;;;4.10;;
14060;SDS011;7105;43.616;1.434;2023-04-03T08:07:45;7.93;;;4.20;;
14060;SDS011;7105;43.616;1.434;2023-04-03T08:10:12;7.97;;;4.30;;
14060;SDS011;7105;43.616;1.434;2023-04-03T08:12:38;4.87;;;4.10;;
14060;SDS011;7105;43.616;1.434;2023-04-03T08:15:03;6.07;;;3.87;;
14060;SDS011;7105;43.616;1.434;2023-04-03T08:17:30;6.20;;;3.90;;
14060;SDS011;7105;43.616;1.434;2023-04-03T08:19:55;5.17;;;4.40;;
14060;SDS011;7105;43.616;1.434;2023-04-03T08:22:21;5.63;;;4.10;;
14060;SDS011;7105;43.616;1.434;2023-04-03T08:24:47;5.47;;;4.37;;
14060;SDS011;7105;43.616;1.434;2023-04-03T08:27:12;8.57;;;4.70;;
14060;SDS011;7105;43.616;1.434;2023-04-03T08:29:38;6.17;;;4.07;;
14060;SDS011;7105;43.616;1.434;2023-04-03T08:32:06;4.87;;;4.00;;
14060;SDS011;7105;43.616;1.434;2023-04-03T08:34:32;5.57;;;4.23;;
14060;SDS011;7105;43.616;1.434;2023-04-03T08:37:00;8.10;;;4.63;;
14060;SDS011;7105;43.616;1.434;2023-04-03T08:39:26;5.17;;;3.77;;
14060;SDS011;7105;43.616;1.434;2023-04-03T08:41:52;4.53;;;3.87;;
14060;SDS011;7105;43.616;1.434;2023-04-03T08:44:39;5.80;;;3.73;;
14060;SDS011;7105;43.616;1.434;2023-04-03T08:50:14;6.27;;;3.53;;
14060;SDS011;7105;43.616;1.434;2023-04-03T08:52:47;6.80;;;3.97;;
14060;SDS011;7105;43.616;1.434;2023-04-03T08:55:27;5.10;;;3.20;;
14060;SDS011;7105;43.616;1.434;2023-04-03T09:00:34;5.80;;;3.47;;
14060;SDS011;7105;43.616;1.434;2023-04-03T09:03:14;4.80;;;2.90;;
14060;SDS011;7105;43.616;1.434;2023-04-03T09:14:02;4.30;;;3.00;;
14060;SDS011;7105;43.616;1.434;2023-04-03T09:16:48;3.93;;;2.70;;
14060;SDS011;7105;43.616;1.434;2023-04-03T09:21:56;4.53;;;3.00;;
14060;SDS011;7105;43.616;1.434;2023-04-03T09:24:23;3.20;;;2.70;;
14060;SDS011;7105;43.616;1.434;2023-04-03T09:29:25;3.83;;;3.17;;
14060;SDS011;7105;43.616;1.434;2023-04-03T09:32:00;6.73;;;2.83;;
14060;SDS011;7105;43.616;1.434;2023-04-03T09:34:28;5.67;;;2.70;;
14060;SDS011;7105;43.616;1.434;2023-04-03T09:36:57;4.73;;;2.83;;
14060;SDS011;7105;43.616;1.434;2023-04-03T09:39:30;5.57;;;2.87;;
14060;SDS011;7105;43.616;1.434;2023-04-03T09:44:30;3.80;;;2.83;;
14060;SDS011;7105;43.616;1.434;2023-04-03T09:46:57;5.23;;;2.73;;
14060;SDS011;7105;43.616;1.434;2023-04-03T09:49:23;3.83;;;2.50;;
14060;SDS011;7105;43.616;1.434;2023-04-03T09:51:49;6.47;;;2.80;;
14060;SDS011;7105;43.616;1.434;2023-04-03T09:57:20;4.90;;;3.00;;
14060;SDS011;7105;43.616;1.434;2023-04-03T10:05:00;4.43;;;2.63;;
14060;SDS011;7105;43.616;1.434;2023-04-03T10:07:27;3.10;;;2.80;;
14060;SDS011;7105;43.616;1.434;2023-04-03T10:09:57;4.47;;;2.67;;
14060;SDS011;7105;43.616;1.434;2023-04-03T10:12:40;4.13;;;2.63;;
14060;SDS011;7105;43.616;1.434;2023-04-03T10:15:16;8.10;;;3.70;;
14060;SDS011;7105;43.616;1.434;2023-04-03T10:18:02;3.73;;;2.60;;
14060;SDS011;7105;43.616;1.434;2023-04-03T10:20:47;3.43;;;1.90;;
14060;SDS011;7105;43.616;1.434;2023-04-03T10:38:04;5.40;;;2.73;;
14060;SDS011;7105;43.616;1.434;2023-04-03T10:46:08;5.83;;;2.53;;
14060;SDS011;7105;43.616;1.434;2023-04-03T10:59:29;4.00;;;2.00;;
14060;SDS011;7105;43.616;1.434;2023-04-03T11:02:01;7.00;;;1.83;;
14060;SDS011;7105;43.616;1.434;2023-04-03T11:04:44;4.43;;;1.80;;
14060;SDS011;7105;43.616;1.434;2023-04-03T11:09:50;4.47;;;1.80;;
14060;SDS011;7105;43.616;1.434;2023-04-03T11:12:28;2.10;;;1.50;;
14060;SDS011;7105;43.616;1.434;2023-04-03T11:15:11;2.70;;;1.60;;
14060;SDS011;7105;43.616;1.434;2023-04-03T11:17:42;2.33;;;1.83;;
14060;SDS011;7105;43.616;1.434;2023-04-03T11:20:19;2.07;;;1.50;;
14060;SDS011;7105;43.616;1.434;2023-04-03T11:23:00;4.60;;;1.63;;
14060;SDS011;7105;43.616;1.434;2023-04-03T11:25:29;3.57;;;1.67;;
14060;SDS011;7105;43.616;1.434;2023-04-03T11:28:01;4.93;;;1.60;;
14060;SDS011;7105;43.616;1.434;2023-04-03T11:30:58;2.60;;;1.40;;
14060;SDS011;7105;43.616;1.434;2023-04-03T11:36:27;2.80;;;1.80;;
14060;SDS011;7105;43.616;1.434;2023-04-03T11:39:00;3.30;;;1.63;;
14060;SDS011;7105;43.616;1.434;2023-04-03T11:41:32;5.20;;;1.70;;
14060;SDS011;7105;43.616;1.434;2023-04-03T12:13:41;2.10;;;1.70;;
14060;SDS011;7105;43.616;1.434;2023-04-03T12:40:15;3.83;;;1.93;;
14060;SDS011;7105;43.616;1.434;2023-04-03T12:46:21;2.57;;;1.70;;
14060;SDS011;7105;43.616;1.434;2023-04-03T12:48:49;6.03;;;2.57;;
14060;SDS011;7105;43.616;1.434;2023-04-03T12:51:20;2.70;;;1.80;;
14060;SDS011;7105;43.616;1.434;2023-04-03T12:53:46;3.07;;;2.10;;
14060;SDS011;7105;43.616;1.434;2023-04-03T12:59:16;3.90;;;1.90;;
14060;SDS011;7105;43.616;1.434;2023-04-03T13:01:59;4.00;;;2.17;;
14060;SDS011;7105;43.616;1.434;2023-04-03T13:04:29;3.97;;;1.70;;
14060;SDS011;7105;43.616;1.434;2023-04-03T13:06:56;4.80;;;2.00;;
14060;SDS011;7105;43.616;1.434;2023-04-03T13:11:58;3.37;;;2.07;;
14060;SDS011;7105;43.616;1.434;2023-04-03T13:14:26;3.90;;;1.90;;
14060;SDS011;7105;43.616;1.434;2023-04-03T13:17:00;2.13;;;1.70;;
14060;SDS011;7105;43.616;1.434;2023-04-03T13:19:35;5.93;;;1.70;;
14060;SDS011;7105;43.616;1.434;2023-04-03T13:22:02;3.63;;;1.90;;
14060;SDS011;7105;43.616;1.434;2023-04-03T13:24:51;3.03;;;1.90;;
14060;SDS011;7105;43.616;1.434;2023-04-03T13:27:18;4.10;;;2.13;;
14060;SDS011;7105;43.616;1.434;2023-04-03T13:29:48;2.43;;;1.60;;
14060;SDS011;7105;43.616;1.434;2023-04-03T13:32:18;3.33;;;1.70;;
14060;SDS011;7105;43.616;1.434;2023-04-03T13:34:46;2.03;;;1.70;;
14060;SDS011;7105;43.616;1.434;2023-04-03T13:37:19;5.60;;;1.70;;
14060;SDS011;7105;43.616;1.434;2023-04-03T13:39:56;8.07;;;2.00;;
14060;SDS011;7105;43.616;1.434;2023-04-03T13:42:27;2.67;;;1.87;;
14060;SDS011;7105;43.616;1.434;2023-04-03T13:50:51;3.50;;;2.10;;
14060;SDS011;7105;43.616;1.434;2023-04-03T13:53:27;4.90;;;2.00;;
14060;SDS011;7105;43.616;1.434;2023-04-03T13:58:26;2.40;;;1.57;;
14060;SDS011;7105;43.616;1.434;2023-04-03T14:00:54;4.20;;;2.37;;
14060;SDS011;7105;43.616;1.434;2023-04-03T14:06:05;4.13;;;2.47;;
14060;SDS011;7105;43.616;1.434;2023-04-03T14:08:31;2.33;;;1.53;;
14060;SDS011;7105;43.616;1.434;2023-04-03T14:10:57;4.37;;;2.03;;
14060;SDS011;7105;43.616;1.434;2023-04-03T14:13:22;3.40;;;1.90;;
14060;SDS011;7105;43.616;1.434;2023-04-03T14:15:48;4.63;;;2.13;;
14060;SDS011;7105;43.616;1.434;2023-04-03T14:18:17;3.10;;;2.00;;
14060;SDS011;7105;43.616;1.434;2023-04-03T14:20:44;5.70;;;2.10;;
14060;SDS011;7105;43.616;1.434;2023-04-03T14:23:10;3.60;;;2.00;;
14060;SDS011;7105;43.616;1.434;2023-04-03T14:25:36;2.60;;;1.70;;
14060;SDS011;7105;43.616;1.434;2023-04-03T14:28:12;4.50;;;2.23;;
14060;SDS011;7105;43.616;1.434;2023-04-03T14:30:49;3.77;;;2.00;;
14060;SDS011;7105;43.616;1.434;2023-04-03T14:33:19;2.93;;;2.00;;
14060;SDS011;7105;43.616;1.434;2023-04-03T14:35:47;4.53;;;2.27;;
14060;SDS011;7105;43.616;1.434;2023-04-03T14:38:23;3.30;;;2.10;;
14060;SDS011;7105;43.616;1.434;2023-04-03T14:40:51;4.13;;;2.20;;
14060;SDS011;7105;43.616;1.434;2023-04-03T14:43:18;3.07;;;1.97;;
14060;SDS011;7105;43.616;1.434;2023-04-03T14:45:45;3.73;;;2.20;;
14060;SDS011;7105;43.616;1.434;2023-04-03T14:48:20;3.70;;;2.30;;
14060;SDS011;7105;43.616;1.434;2023-04-03T14:50:48;4.10;;;2.33;;
14060;SDS011;7105;43.616;1.434;2023-04-03T14:53:15;4.77;;;2.77;;
14060;SDS011;7105;43.616;1.434;2023-04-03T14:55:43;3.77;;;2.30;;
14060;SDS011;7105;43.616;1.434;2023-04-03T14:58:14;4.67;;;2.20;;
14060;SDS011;7105;43.616;1.434;2023-04-03T15:00:41;3.83;;;2.03;;
14060;SDS011;7105;43.616;1.434;2023-04-03T15:03:14;2.73;;;1.90;;
14060;SDS011;7105;43.616;1.434;2023-04-03T15:05:45;2.53;;;2.00;;
14060;SDS011;7105;43.616;1.434;2023-04-03T15:08:20;5.10;;;1.97;;
14060;SDS011;7105;43.616;1.434;2023-04-03T15:10:54;6.13;;;2.37;;
14060;SDS011;7105;43.616;1.434;2023-04-03T15:13:23;4.13;;;2.13;;
14060;SDS011;7105;43.616;1.434;2023-04-03T15:15:49;6.13;;;2.53;;
14060;SDS011;7105;43.616;1.434;2023-04-03T15:18:18;3.80;;;1.90;;
14060;SDS011;7105;43.616;1.434;2023-04-03T15:20:46;3.10;;;2.00;;
14060;SDS011;7105;43.616;1.434;2023-04-03T15:23:13;3.43;;;2.03;;
14060;SDS011;7105;43.616;1.434;2023-04-03T15:25:41;5.07;;;2.47;;
14060;SDS011;7105;43.616;1.434;2023-04-03T15:28:17;5.03;;;2.30;;
14060;SDS011;7105;43.616;1.434;2023-04-03T15:30:47;4.30;;;2.07;;
14060;SDS011;7105;43.616;1.434;2023-04-03T15:33:13;3.83;;;1.70;;
14060;SDS011;7105;43.616;1.434;2023-04-03T15:35:40;4.33;;;1.80;;
14060;SDS011;7105;43.616;1.434;2023-04-03T15:38:06;2.50;;;1.63;;
14060;SDS011;7105;43.616;1.434;2023-04-03T15:40:32;4.57;;;1.90;;
14060;SDS011;7105;43.616;1.434;2023-04-03T15:42:58;3.00;;;1.70;;
14060;SDS011;7105;43.616;1.434;2023-04-03T15:45:24;2.93;;;1.60;;
14060;SDS011;7105;43.616;1.434;2023-04-03T15:47:53;4.23;;;1.93;;
14060;SDS011;7105;43.616;1.434;2023-04-03T15:50:18;3.03;;;2.00;;
14060;SDS011;7105;43.616;1.434;2023-04-03T15:52:47;3.37;;;1.70;;
14060;SDS011;7105;43.616;1.434;2023-04-03T15:55:13;2.57;;;1.80;;
14060;SDS011;7105;43.616;1.434;2023-04-03T15:57:38;2.97;;;1.70;;
14060;SDS011;7105;43.616;1.434;2023-04-03T16:00:04;3.20;;;1.77;;
14060;SDS011;7105;43.616;1.434;2023-04-03T16:02:31;3.67;;;2.10;;
14060;SDS011;7105;43.616;1.434;2023-04-03T16:04:58;2.77;;;2.10;;
14060;SDS011;7105;43.616;1.434;2023-04-03T16:07:24;3.30;;;2.00;;
14060;SDS011;7105;43.616;1.434;2023-04-03T16:09:50;5.77;;;2.20;;
14060;SDS011;7105;43.616;1.434;2023-04-03T16:12:16;3.23;;;1.60;;
14060;SDS011;7105;43.616;1.434;2023-04-03T16:14:42;4.27;;;2.00;;
14060;SDS011;7105;43.616;1.434;2023-04-03T16:17:07;3.03;;;1.77;;
14060;SDS011;7105;43.616;1.434;2023-04-03T16:19:33;2.80;;;2.03;;
14060;SDS011;7105;43.616;1.434;2023-04-03T16:21:59;2.43;;;1.70;;
14060;SDS011;7105;43.616;1.434;2023-04-03T16:24:25;3.30;;;2.40;;
14060;SDS011;7105;43.616;1.434;2023-04-03T16:26:51;6.37;;;2.40;;
14060;SDS011;7105;43.616;1.434;2023-04-03T16:29:18;4.13;;;1.73;;
14060;SDS011;7105;43.616;1.434;2023-04-03T16:31:43;3.13;;;1.87;;
14060;SDS011;7105;43.616;1.434;2023-04-03T16:34:09;4.77;;;2.00;;
14060;SDS011;7105;43.616;1.434;2023-04-03T16:36:36;3.50;;;2.27;;
14060;SDS011;7105;43.616;1.434;2023-04-03T16:39:02;2.50;;;1.93;;
14060;SDS011;7105;43.616;1.434;2023-04-03T16:41:28;4.50;;;2.00;;
14060;SDS011;7105;43.616;1.434;2023-04-03T16:43:54;4.77;;;1.97;;
14060;SDS011;7105;43.616;1.434;2023-04-03T16:46:20;2.20;;;1.57;;
14060;SDS011;7105;43.616;1.434;2023-04-03T16:48:45;2.87;;;1.90;;
14060;SDS011;7105;43.616;1.434;2023-04-03T16:51:12;3.73;;;2.03;;
14060;SDS011;7105;43.616;1.434;2023-04-03T16:53:38;3.73;;;2.27;;
14060;SDS011;7105;43.616;1.434;2023-04-03T16:56:04;3.23;;;1.90;;
14060;SDS011;7105;43.616;1.434;2023-04-03T16:58:30;2.53;;;1.53;;
14060;SDS011;7105;43.616;1.434;2023-04-03T17:00:55;2.57;;;1.80;;
14060;SDS011;7105;43.616;1.434;2023-04-03T17:03:21;3.27;;;1.90;;
14060;SDS011;7105;43.616;1.434;2023-04-03T17:05:50;2.27;;;1.60;;
14060;SDS011;7105;43.616;1.434;2023-04-03T17:08:16;3.93;;;2.00;;
14060;SDS011;7105;43.616;1.434;2023-04-03T17:10:43;2.77;;;1.80;;
14060;SDS011;7105;43.616;1.434;2023-04-03T17:13:08;3.37;;;2.13;;
14060;SDS011;7105;43.616;1.434;2023-04-03T17:15:34;2.63;;;2.00;;
14060;SDS011;7105;43.616;1.434;2023-04-03T17:18:00;1.97;;;1.73;;
14060;SDS011;7105;43.616;1.434;2023-04-03T17:20:26;3.63;;;1.60;;
14060;SDS011;7105;43.616;1.434;2023-04-03T17:22:52;3.50;;;1.60;;
14060;SDS011;7105;43.616;1.434;2023-04-03T17:25:18;2.83;;;1.87;;
14060;SDS011;7105;43.616;1.434;2023-04-03T17:27:44;1.90;;;1.70;;
14060;SDS011;7105;43.616;1.434;2023-04-03T17:30:10;2.70;;;1.53;;
14060;SDS011;7105;43.616;1.434;2023-04-03T17:32:36;1.93;;;1.60;;
14060;SDS011;7105;43.616;1.434;2023-04-03T17:35:02;2.30;;;1.57;;
14060;SDS011;7105;43.616;1.434;2023-04-03T17:37:28;3.70;;;2.00;;
14060;SDS011;7105;43.616;1.434;2023-04-03T17:39:54;3.00;;;1.83;;